Otisco, NY

12:06 AM EDT on November 01, 2014 (GMT -0400)
Tully | Change Station
CLOSE
Current Station
Personal Weather Station
Location: Tully, NY
Elevation: 1361 ft
Nearby Weather Stations

Elev 1361 ft 42.81 °N, 76.11 °W | Updated 1 minute ago

Overcast
Overcast
42.4 °F
Feels Like 42 °F
N
0.0
Wind Variable Wind from North
Gusts 2.7 mph

Today
High -- | Low -- °F
--% Chance of Precip.
Yesterday
High -- | Low -- °F
Precip. -- in
7:38 AM 5:56 PM
Waxing Gibbous, 62% visible
Pressure 29.93 in
Visibility 10.0 miles
Clouds Overcast 6500 ft
Windchill 42 °F
Dew Point 39 °F
Humidity 88%
Rainfall 0.00 in
Snow Depth Not available.
UV 0 out of 12
Pollen .10 out of 12
Air Quality Not available.
Flu Activity Not available.
METAR KN03 010355Z AUTO 00000KT 10SM OVC065 06/01 A2993 RMK AO2

More Conditions Fewer Conditions

Pressure 29.93 in
Visibility 10.0 miles
Clouds Overcast 6500 ft
Windchill 42 °F
Dew Point 39 °F
Humidity 88%
Rainfall 0.00 in
Snow Depth Not available.
UV 0 out of 12
Pollen .10 out of 12
Air Quality Not available.
Flu Activity Not available.
METAR KN03 010355Z AUTO 00000KT 10SM OVC065 06/01 A2993 RMK AO2

More Conditions Fewer Conditions

10-Day Weather Forecast

Almanac

Astronomy

Nov. 01, 2014 Rise Set
Actual Time
Civil Twilight
Nautical Twilight
Astronomical Twilight
Moon
Length of Visible Light
Length of Day
Tomorrow will be .
, % of the Moon is Illuminated

Today's Extremes

State Highs State Lows

Community

WunderPhotos

Upload Photos

1,766,848 photos uploaded!

WunderBlogs® & News

Nearby

Air Quality

  Air Quality AQ Index Pollutant
Not available.

Snow Depth

Station Depth Elevation

Earthquake Activity

City Distance Mag. Time & Date
Minimum magnitude displayed is 2.5.

Coastal Water Temperatures

Place Temperature

Nearby Weather Stations